Time;durP1;ratioP1;P1;durP2;ratioP2;P2;SDS_P1;SDS_P2;PMS_P1;PMS_P2;Temp;Humidity;BMP_temperature;BMP_pressure;BME280_temperature;BME280_humidity;BME280_pressure;Samples;Min_cycle;Max_cycle;Signal;HPM_P1;HPM_P2
2021/06/20 00:01:28;;;;;;;;;;;20.00;99.90;;;;;;5091079;28;19908;-58
2021/06/20 00:03:53;;;;;;;;;;;20.00;99.90;;;;;;5093343;28;19912;-59
2021/06/20 00:06:29;;;;;;;;;;;19.90;99.90;;;;;;5089848;28;19955;-58
2021/06/20 00:08:56;;;;;;;;;;;19.90;99.90;;;;;;5087758;28;19908;-59
2021/06/20 00:11:21;;;;;;;;;;;19.90;99.90;;;;;;5091757;28;20014;-59
2021/06/20 00:13:47;;;;;;;;;;;19.80;99.90;;;;;;5094011;28;19940;-57
2021/06/20 00:16:12;;;;;;;;;;;19.80;99.90;;;;;;5088516;28;19909;-58
2021/06/20 00:18:38;;;;;;;;;;;19.80;99.90;;;;;;5093822;28;19953;-58
2021/06/20 00:21:03;;;;;;;;;;;19.80;99.90;;;;;;5087110;28;20377;-57
2021/06/20 00:23:29;;;;;;;;;;;19.70;99.90;;;;;;5093637;28;20294;-58
2021/06/20 00:25:54;;;;;;;;;;;19.70;99.90;;;;;;5087300;28;20006;-58
2021/06/20 00:28:20;;;;;;;;;;;19.70;99.90;;;;;;5091041;28;20271;-57
2021/06/20 00:30:46;;;;;;;;;;;19.70;99.90;;;;;;5075105;28;19946;-58
2021/06/20 00:33:11;;;;;;;;;;;19.70;99.90;;;;;;5088061;28;20313;-57
2021/06/20 00:35:37;;;;;;;;;;;19.60;99.90;;;;;;5093046;28;20349;-57
2021/06/20 00:38:02;;;;;;;;;;;19.60;99.90;;;;;;5086822;28;19915;-54
2021/06/20 00:40:28;;;;;;;;;;;19.60;99.90;;;;;;5092954;28;20401;-55
2021/06/20 00:42:54;;;;;;;;;;;19.60;99.90;;;;;;5086554;28;20354;-56
2021/06/20 00:45:21;;;;;;;;;;;19.50;99.90;;;;;;5090256;28;20374;-57
2021/06/20 00:47:47;;;;;;;;;;;19.40;99.90;;;;;;5093036;28;19952;-56
2021/06/20 00:50:13;;;;;;;;;;;19.40;99.90;;;;;;5061711;28;19948;-58
2021/06/20 00:52:39;;;;;;;;;;;19.40;99.90;;;;;;5093190;28;20429;-55
2021/06/20 00:55:05;;;;;;;;;;;19.40;99.90;;;;;;5085669;28;19915;-58
2021/06/20 00:57:32;;;;;;;;;;;19.30;99.90;;;;;;5092612;28;19908;-59
2021/06/20 00:59:58;;;;;;;;;;;19.30;99.90;;;;;;5083941;28;20364;-56
2021/06/20 01:02:23;;;;;;;;;;;19.30;99.90;;;;;;5088329;28;20390;-56
2021/06/20 01:04:50;;;;;;;;;;;19.30;99.90;;;;;;5091665;28;19908;-57
2021/06/20 01:07:20;;;;;;;;;;;19.20;99.90;;;;;;5067459;28;19913;-58
2021/06/20 01:09:46;;;;;;;;;;;19.10;99.90;;;;;;5088911;28;19908;-55
2021/06/20 01:12:12;;;;;;;;;;;19.10;99.90;;;;;;5092339;28;19919;-58
2021/06/20 01:14:38;;;;;;;;;;;19.10;99.90;;;;;;5088685;28;19908;-59
2021/06/20 01:17:04;;;;;;;;;;;19.10;99.90;;;;;;5091389;28;20423;-59
2021/06/20 01:19:30;;;;;;;;;;;19.10;99.90;;;;;;5069358;28;19908;-58
2021/06/20 01:21:57;;;;;;;;;;;19.00;99.90;;;;;;5090659;28;19912;-57
2021/06/20 01:24:23;;;;;;;;;;;19.10;99.90;;;;;;5087869;28;20008;-56
2021/06/20 01:26:48;;;;;;;;;;;19.10;99.90;;;;;;5070922;28;19995;-56
2021/06/20 01:29:16;;;;;;;;;;;19.10;99.90;;;;;;5084330;28;19908;-58
2021/06/20 01:31:49;;;;;;;;;;;19.10;99.90;;;;;;5088597;28;19959;-58
2021/06/20 01:34:15;;;;;;;;;;;19.20;99.90;;;;;;5084087;28;19915;-57
2021/06/20 01:36:40;;;;;;;;;;;19.20;99.90;;;;;;5087224;28;19916;-57
2021/06/20 01:39:06;;;;;;;;;;;19.20;99.90;;;;;;5090622;28;20282;-57
2021/06/20 01:41:32;;;;;;;;;;;19.10;99.90;;;;;;5092121;28;19908;-57
2021/06/20 01:43:57;;;;;;;;;;;19.20;99.90;;;;;;5081073;28;19912;-56
2021/06/20 01:46:23;;;;;;;;;;;19.20;99.90;;;;;;5089104;28;19916;-59
2021/06/20 01:48:48;;;;;;;;;;;19.20;99.90;;;;;;5086731;28;19951;-58
2021/06/20 01:51:14;;;;;;;;;;;19.20;99.90;;;;;;5062118;28;19913;-57
2021/06/20 01:53:39;;;;;;;;;;;19.20;99.90;;;;;;5087413;28;19931;-58
2021/06/20 01:56:05;;;;;;;;;;;19.20;99.90;;;;;;5089867;28;20376;-55
2021/06/20 01:58:30;;;;;;;;;;;19.20;99.90;;;;;;5090721;28;19912;-57
2021/06/20 02:00:57;;;;;;;;;;;19.10;99.90;;;;;;5090723;28;19918;-56
2021/06/20 02:03:25;;;;;;;;;;;19.10;99.90;;;;;;5088723;28;19917;-59
2021/06/20 02:05:51;;;;;;;;;;;19.00;99.90;;;;;;5091282;28;19908;-58
2021/06/20 02:08:20;;;;;;;;;;;19.00;99.90;;;;;;5086967;28;19908;-58
2021/06/20 02:10:47;;;;;;;;;;;19.00;99.90;;;;;;5090009;28;20393;-59
2021/06/20 02:13:12;;;;;;;;;;;18.90;99.90;;;;;;5085834;28;20057;-59
2021/06/20 02:15:38;;;;;;;;;;;18.90;99.90;;;;;;5088171;28;19987;-54
2021/06/20 02:18:04;;;;;;;;;;;18.90;99.90;;;;;;5090642;28;19990;-60
2021/06/20 02:20:30;;;;;;;;;;;19.00;99.90;;;;;;5087388;28;19992;-59
2021/06/20 02:22:56;;;;;;;;;;;18.90;99.90;;;;;;5063526;28;19917;-55
2021/06/20 02:25:23;;;;;;;;;;;18.90;99.90;;;;;;5086273;28;19916;-57
2021/06/20 02:27:49;;;;;;;;;;;18.90;99.90;;;;;;5088900;28;19922;-58
2021/06/20 02:30:16;;;;;;;;;;;18.90;99.90;;;;;;5083159;28;19908;-59
2021/06/20 02:32:41;;;;;;;;;;;18.90;99.90;;;;;;5087844;28;20306;-58
2021/06/20 02:35:09;;;;;;;;;;;18.90;99.90;;;;;;5089444;28;19908;-59
2021/06/20 02:37:34;;;;;;;;;;;18.90;99.90;;;;;;5086308;28;19966;-54
2021/06/20 02:40:00;;;;;;;;;;;18.90;99.90;;;;;;5062207;28;20320;-57
2021/06/20 02:42:26;;;;;;;;;;;19.00;99.90;;;;;;5085392;28;20266;-57
2021/06/20 02:44:52;;;;;;;;;;;19.00;99.90;;;;;;5087236;28;19908;-59
2021/06/20 02:47:18;;;;;;;;;;;19.00;99.90;;;;;;5090687;28;19916;-57
2021/06/20 02:49:44;;;;;;;;;;;19.00;99.90;;;;;;5087151;28;19983;-58
2021/06/20 02:52:11;;;;;;;;;;;19.00;99.90;;;;;;5089505;28;19955;-58
2021/06/20 02:54:37;;;;;;;;;;;19.00;99.90;;;;;;5085859;28;19931;-58
2021/06/20 02:57:03;;;;;;;;;;;19.00;99.90;;;;;;5088164;28;19908;-58
2021/06/20 02:59:28;;;;;;;;;;;19.00;99.90;;;;;;5061116;28;19916;-59
2021/06/20 03:01:54;;;;;;;;;;;19.00;99.90;;;;;;5087188;28;19908;-58
2021/06/20 03:04:19;;;;;;;;;;;19.00;99.90;;;;;;5090546;28;19919;-56
2021/06/20 03:06:45;;;;;;;;;;;19.00;99.90;;;;;;5086071;28;19941;-56
2021/06/20 03:09:10;;;;;;;;;;;19.10;99.90;;;;;;5087815;28;20277;-58
2021/06/20 03:11:41;;;;;;;;;;;19.10;99.90;;;;;;5090762;28;20297;-57
2021/06/20 03:14:11;;;;;;;;;;;19.10;99.90;;;;;;5086149;28;19908;-57
2021/06/20 03:16:37;;;;;;;;;;;19.10;99.90;;;;;;5090252;28;19919;-60
2021/06/20 03:19:04;;;;;;;;;;;19.10;99.90;;;;;;5084328;28;19908;-55
2021/06/20 03:21:30;;;;;;;;;;;19.10;99.90;;;;;;5072472;28;19908;-59
2021/06/20 03:23:55;;;;;;;;;;;19.10;99.90;;;;;;5084558;28;19919;-58
2021/06/20 03:26:21;;;;;;;;;;;19.10;99.90;;;;;;5088360;28;20410;-55
2021/06/20 03:28:46;;;;;;;;;;;19.10;99.90;;;;;;5090406;28;19908;-59
2021/06/20 03:31:12;;;;;;;;;;;19.10;99.90;;;;;;5085850;28;19909;-59
2021/06/20 03:33:37;;;;;;;;;;;19.10;99.90;;;;;;5090819;28;20282;-59
2021/06/20 03:36:03;;;;;;;;;;;19.10;99.90;;;;;;5088004;28;19969;-59
2021/06/20 03:38:29;;;;;;;;;;;19.20;99.90;;;;;;5094522;28;19909;-58
2021/06/20 03:40:55;;;;;;;;;;;19.20;99.90;;;;;;5088723;28;19908;-59
2021/06/20 03:43:20;;;;;;;;;;;19.20;99.90;;;;;;5092584;28;20305;-55
2021/06/20 03:45:46;;;;;;;;;;;19.20;99.90;;;;;;5075580;28;19913;-61
2021/06/20 03:48:11;;;;;;;;;;;19.30;99.90;;;;;;5089776;28;19963;-59
2021/06/20 03:50:37;;;;;;;;;;;19.30;99.90;;;;;;5094380;28;19916;-58
2021/06/20 03:53:02;;;;;;;;;;;19.30;99.90;;;;;;5088119;28;19909;-59
2021/06/20 03:55:28;;;;;;;;;;;19.30;99.90;;;;;;5093835;28;20409;-56
2021/06/20 03:57:54;;;;;;;;;;;19.30;99.90;;;;;;5088296;28;19937;-57
2021/06/20 04:00:19;;;;;;;;;;;19.30;99.90;;;;;;5091868;28;19908;-59
2021/06/20 04:02:45;;;;;;;;;;;19.30;99.90;;;;;;5094063;28;20332;-58
2021/06/20 04:05:14;;;;;;;;;;;19.40;99.90;;;;;;5088922;28;19920;-58
2021/06/20 04:07:40;;;;;;;;;;;19.40;99.90;;;;;;5091549;28;19908;-59
2021/06/20 04:10:05;;;;;;;;;;;19.40;99.90;;;;;;5093991;28;20066;-60
2021/06/20 04:12:31;;;;;;;;;;;19.40;99.90;;;;;;5090429;28;19909;-59
2021/06/20 04:14:56;;;;;;;;;;;19.40;99.90;;;;;;5074425;28;20286;-59
2021/06/20 04:17:22;;;;;;;;;;;19.40;99.90;;;;;;5089324;28;20382;-55
2021/06/20 04:19:48;;;;;;;;;;;19.50;99.90;;;;;;5093918;28;19909;-58
2021/06/20 04:22:14;;;;;;;;;;;19.40;99.90;;;;;;5094063;28;19908;-55
2021/06/20 04:24:39;;;;;;;;;;;19.50;99.90;;;;;;5091087;28;19908;-56
2021/06/20 04:27:05;;;;;;;;;;;19.50;99.90;;;;;;5093650;28;19909;-58
2021/06/20 04:29:30;;;;;;;;;;;19.60;99.90;;;;;;5089808;28;19931;-59
2021/06/20 04:31:56;;;;;;;;;;;19.60;99.90;;;;;;5092556;28;19955;-59
2021/06/20 04:34:21;;;;;;;;;;;19.60;99.90;;;;;;5089127;28;20355;-61
2021/06/20 04:36:47;;;;;;;;;;;19.70;99.90;;;;;;5072952;28;19914;-63
2021/06/20 04:39:14;;;;;;;;;;;19.80;99.90;;;;;;5093332;28;19954;-61
2021/06/20 04:41:40;;;;;;;;;;;19.80;99.90;;;;;;5090598;28;19915;-59
2021/06/20 04:44:42;;;;;;;;;;;19.90;99.90;;;;;;5093338;28;20377;-59
2021/06/20 04:46:51;;;;;;;;;;;19.90;99.90;;;;;;5107266;22;20007;-48
2021/06/20 04:49:19;;;;;;;;;;;20.00;99.90;;;;;;5052725;28;20352;-53
2021/06/20 04:51:44;;;;;;;;;;;20.00;99.90;;;;;;5053128;28;20383;-53
2021/06/20 04:54:11;;;;;;;;;;;20.10;99.90;;;;;;5033530;28;19913;-52
2021/06/20 04:56:36;;;;;;;;;;;20.10;99.90;;;;;;5052818;28;20340;-53
2021/06/20 04:59:02;;;;;;;;;;;20.10;99.90;;;;;;5052640;28;19955;-52
2021/06/20 05:01:28;;;;;;;;;;;20.10;99.90;;;;;;5052927;28;19928;-48
2021/06/20 05:03:55;;;;;;;;;;;20.20;99.90;;;;;;5052429;28;19923;-46
2021/06/20 05:06:21;;;;;;;;;;;20.20;99.90;;;;;;5052160;28;19991;-49
2021/06/20 05:08:46;;;;;;;;;;;20.20;99.90;;;;;;5052541;28;20043;-54
2021/06/20 05:11:12;;;;;;;;;;;20.20;99.90;;;;;;5052741;28;20030;-54
2021/06/20 05:13:37;;;;;;;;;;;20.20;99.90;;;;;;5052752;28;19909;-50
2021/06/20 05:16:03;;;;;;;;;;;20.20;99.90;;;;;;5052140;28;19956;-50
2021/06/20 05:18:29;;;;;;;;;;;20.20;99.90;;;;;;5034523;28;19915;-56
2021/06/20 05:20:54;;;;;;;;;;;20.10;99.90;;;;;;5052377;28;19944;-53
2021/06/20 05:23:20;;;;;;;;;;;20.10;99.90;;;;;;5052606;28;20389;-53
2021/06/20 05:25:46;;;;;;;;;;;20.10;99.90;;;;;;5052227;28;19909;-53
2021/06/20 05:28:12;;;;;;;;;;;20.10;99.90;;;;;;5033934;28;20008;-47
2021/06/20 05:30:37;;;;;;;;;;;20.10;99.90;;;;;;5052167;28;19915;-46
2021/06/20 05:33:03;;;;;;;;;;;20.00;99.90;;;;;;5051843;28;19909;-50
2021/06/20 05:35:29;;;;;;;;;;;20.00;99.90;;;;;;5051831;28;20322;-50
2021/06/20 05:37:54;;;;;;;;;;;20.00;99.90;;;;;;5051816;28;19916;-49
2021/06/20 05:40:19;;;;;;;;;;;20.00;99.90;;;;;;5052096;28;19935;-49
2021/06/20 05:42:45;;;;;;;;;;;20.00;99.90;;;;;;5050756;28;19920;-52
2021/06/20 05:45:11;;;;;;;;;;;20.00;99.90;;;;;;5051582;28;19913;-48
2021/06/20 05:47:36;;;;;;;;;;;20.00;99.90;;;;;;5033963;28;19921;-51
2021/06/20 05:50:02;;;;;;;;;;;20.00;99.90;;;;;;5051975;28;20009;-51
2021/06/20 05:52:28;;;;;;;;;;;19.90;99.90;;;;;;5052145;28;19970;-50
2021/06/20 05:54:53;;;;;;;;;;;19.90;99.90;;;;;;5050673;28;19916;-48
2021/06/20 05:57:19;;;;;;;;;;;19.80;99.90;;;;;;5051013;28;19908;-49
2021/06/20 05:59:45;;;;;;;;;;;19.80;99.90;;;;;;5050393;28;20390;-52
2021/06/20 06:02:10;;;;;;;;;;;19.80;99.90;;;;;;5052233;28;20291;-51
2021/06/20 06:04:36;;;;;;;;;;;19.70;99.90;;;;;;5051489;28;20299;-49
2021/06/20 06:07:02;;;;;;;;;;;19.80;99.90;;;;;;5033724;28;19971;-51
2021/06/20 06:09:27;;;;;;;;;;;19.70;99.90;;;;;;5033744;28;20000;-52
2021/06/20 06:11:53;;;;;;;;;;;19.60;99.90;;;;;;5051634;28;19908;-50
2021/06/20 06:14:19;;;;;;;;;;;19.60;99.90;;;;;;5051380;28;20337;-54
2021/06/20 06:16:44;;;;;;;;;;;19.50;99.90;;;;;;5051300;28;19909;-52
2021/06/20 06:19:10;;;;;;;;;;;19.50;99.90;;;;;;5051538;28;20395;-51
2021/06/20 06:21:38;;;;;;;;;;;19.50;99.90;;;;;;5051917;28;19962;-55
2021/06/20 06:24:04;;;;;;;;;;;19.50;99.90;;;;;;5051382;28;19966;-52
2021/06/20 06:26:30;;;;;;;;;;;19.40;99.90;;;;;;5050895;28;19912;-53
2021/06/20 06:28:56;;;;;;;;;;;19.40;99.90;;;;;;5051341;28;19908;-51
2021/06/20 06:31:21;;;;;;;;;;;19.40;99.90;;;;;;5051254;28;20287;-50
2021/06/20 06:33:47;;;;;;;;;;;19.40;99.90;;;;;;5051114;28;19999;-54
2021/06/20 06:36:13;;;;;;;;;;;19.40;99.90;;;;;;5050731;28;20498;-52
2021/06/20 06:38:38;;;;;;;;;;;19.40;99.90;;;;;;5033394;28;19948;-51
2021/06/20 06:41:04;;;;;;;;;;;19.40;99.90;;;;;;5051038;28;19909;-52
2021/06/20 06:43:29;;;;;;;;;;;19.40;99.90;;;;;;5050826;28;20294;-57
2021/06/20 06:45:56;;;;;;;;;;;19.40;99.90;;;;;;5050213;28;20124;-53
2021/06/20 06:48:21;;;;;;;;;;;19.40;99.90;;;;;;5050739;28;19979;-53
2021/06/20 06:50:47;;;;;;;;;;;19.40;99.90;;;;;;5051247;28;20026;-49
2021/06/20 06:53:13;;;;;;;;;;;19.40;99.90;;;;;;5051115;28;19909;-50
2021/06/20 06:55:38;;;;;;;;;;;19.40;99.90;;;;;;5050316;28;19927;-51
2021/06/20 06:58:04;;;;;;;;;;;19.40;99.90;;;;;;5050638;28;19909;-53
2021/06/20 07:00:29;;;;;;;;;;;19.40;99.90;;;;;;5032435;28;19974;-48
2021/06/20 07:02:55;;;;;;;;;;;19.50;99.90;;;;;;5032502;28;19913;-48
2021/06/20 07:05:20;;;;;;;;;;;19.60;99.90;;;;;;5050154;28;19912;-49
2021/06/20 07:07:46;;;;;;;;;;;19.70;99.90;;;;;;5050323;28;19962;-48
2021/06/20 07:10:11;;;;;;;;;;;19.90;99.90;;;;;;5050525;28;19963;-48
2021/06/20 07:12:37;;;;;;;;;;;20.00;99.90;;;;;;5050335;28;19909;-48
2021/06/20 07:15:04;;;;;;;;;;;20.20;99.90;;;;;;5032394;28;19908;-52
2021/06/20 07:17:30;;;;;;;;;;;20.30;99.90;;;;;;5050587;28;20081;-48
2021/06/20 07:19:56;;;;;;;;;;;20.40;99.90;;;;;;5050766;28;19913;-51
2021/06/20 07:22:21;;;;;;;;;;;20.50;99.90;;;;;;5032599;28;19932;-49
2021/06/20 07:24:47;;;;;;;;;;;20.60;99.90;;;;;;5050078;28;19908;-52
2021/06/20 07:27:13;;;;;;;;;;;20.70;99.90;;;;;;5050279;28;19909;-49
2021/06/20 07:29:42;;;;;;;;;;;20.80;99.90;;;;;;5050110;28;19909;-48
2021/06/20 07:32:08;;;;;;;;;;;20.80;99.90;;;;;;5050214;28;19912;-49
2021/06/20 07:34:34;;;;;;;;;;;21.00;99.90;;;;;;5049833;28;19965;-46
2021/06/20 07:36:59;;;;;;;;;;;21.00;99.90;;;;;;5049529;28;19915;-46
2021/06/20 07:39:25;;;;;;;;;;;21.20;99.90;;;;;;5050281;28;19908;-46
2021/06/20 07:41:50;;;;;;;;;;;21.40;99.90;;;;;;5032028;28;20445;-47
2021/06/20 07:44:16;;;;;;;;;;;21.70;99.90;;;;;;5050201;28;19913;-48
2021/06/20 07:46:41;;;;;;;;;;;22.00;99.90;;;;;;5049651;28;19917;-51
2021/06/20 07:49:07;;;;;;;;;;;22.30;99.90;;;;;;5050520;28;20458;-49
2021/06/20 07:51:33;;;;;;;;;;;22.50;99.90;;;;;;5050078;28;19931;-49
2021/06/20 07:53:58;;;;;;;;;;;22.70;99.90;;;;;;5049960;28;20389;-47
2021/06/20 07:56:24;;;;;;;;;;;22.90;99.90;;;;;;5049478;28;19916;-52
2021/06/20 07:58:49;;;;;;;;;;;23.10;99.90;;;;;;5048274;28;20270;-47
2021/06/20 08:01:15;;;;;;;;;;;23.30;99.90;;;;;;5049611;28;20402;-49
2021/06/20 08:03:40;;;;;;;;;;;23.40;99.90;;;;;;5048726;28;19913;-47
2021/06/20 08:06:06;;;;;;;;;;;23.60;99.90;;;;;;5049328;28;19956;-50
2021/06/20 08:08:31;;;;;;;;;;;23.80;99.90;;;;;;5048823;28;20290;-49
2021/06/20 08:10:57;;;;;;;;;;;24.00;99.90;;;;;;5049520;28;19948;-47
2021/06/20 08:13:23;;;;;;;;;;;24.20;99.90;;;;;;5048622;28;19963;-47
2021/06/20 08:15:49;;;;;;;;;;;24.30;99.90;;;;;;5049800;28;19908;-49
2021/06/20 08:18:14;;;;;;;;;;;24.40;99.90;;;;;;5050080;28;19915;-51
2021/06/20 08:20:40;;;;;;;;;;;24.50;99.90;;;;;;5052015;28;19912;-47
2021/06/20 08:23:05;;;;;;;;;;;24.60;99.90;;;;;;5053392;28;19952;-46
2021/06/20 08:25:31;;;;;;;;;;;24.50;99.90;;;;;;5053431;28;19909;-49
2021/06/20 08:27:56;;;;;;;;;;;24.50;99.90;;;;;;5053341;28;19962;-50
2021/06/20 08:30:22;;;;;;;;;;;24.50;99.90;;;;;;5053062;28;19909;-47
2021/06/20 08:32:47;;;;;;;;;;;24.40;99.90;;;;;;5053456;28;19909;-48
2021/06/20 08:35:16;;;;;;;;;;;24.40;99.90;;;;;;5053009;28;19909;-52
2021/06/20 08:37:42;;;;;;;;;;;24.30;99.90;;;;;;5053720;28;20011;-48
2021/06/20 08:40:08;;;;;;;;;;;24.00;99.90;;;;;;5052983;28;20000;-47
2021/06/20 08:42:33;;;;;;;;;;;23.90;99.90;;;;;;5053197;28;19912;-49
2021/06/20 08:44:59;;;;;;;;;;;23.80;99.90;;;;;;5034999;28;19909;-49
2021/06/20 08:47:24;;;;;;;;;;;23.60;99.90;;;;;;5052710;28;19924;-45
2021/06/20 08:49:50;;;;;;;;;;;23.60;99.90;;;;;;5053030;28;20345;-49
2021/06/20 08:52:16;;;;;;;;;;;23.50;99.90;;;;;;5052964;28;19915;-52
2021/06/20 08:55:00;;;;;;;;;;;23.50;99.90;;;;;;5052569;28;19915;-54
2021/06/20 08:57:30;;;;;;;;;;;23.40;99.90;;;;;;5052426;28;20454;-49
2021/06/20 08:59:55;;;;;;;;;;;23.30;99.90;;;;;;5052598;28;19916;-54
2021/06/20 09:02:25;;;;;;;;;;;23.20;99.90;;;;;;5052586;28;19909;-52
2021/06/20 09:04:57;;;;;;;;;;;23.20;99.90;;;;;;5052419;28;19916;-52
2021/06/20 09:07:30;;;;;;;;;;;23.20;99.90;;;;;;5052045;28;20374;-48
2021/06/20 09:10:06;;;;;;;;;;;23.20;99.90;;;;;;5052418;28;19916;-49
2021/06/20 09:12:40;;;;;;;;;;;23.20;99.90;;;;;;5052438;28;19948;-53
2021/06/20 09:15:06;;;;;;;;;;;23.20;99.90;;;;;;5052408;28;20007;-53
2021/06/20 09:17:31;;;;;;;;;;;23.20;99.90;;;;;;5052776;28;19940;-48
2021/06/20 09:19:57;;;;;;;;;;;23.30;99.90;;;;;;5052350;28;20426;-54
2021/06/20 09:22:22;;;;;;;;;;;23.40;99.90;;;;;;5052420;28;19913;-48
2021/06/20 09:25:01;;;;;;;;;;;23.50;99.90;;;;;;5052037;28;19929;-52
2021/06/20 09:27:26;;;;;;;;;;;23.50;99.90;;;;;;5045729;28;19916;-51
2021/06/20 09:29:52;;;;;;;;;;;23.50;99.90;;;;;;5034101;28;19908;-56
2021/06/20 09:32:18;;;;;;;;;;;23.50;99.90;;;;;;5050902;28;19909;-50
2021/06/20 09:34:44;;;;;;;;;;;23.40;99.90;;;;;;5051703;28;19917;-50
2021/06/20 09:37:10;;;;;;;;;;;23.40;99.90;;;;;;5051985;28;20295;-50
2021/06/20 09:39:36;;;;;;;;;;;23.30;99.90;;;;;;5034165;28;19916;-48
2021/06/20 09:42:06;;;;;;;;;;;23.30;99.90;;;;;;5051783;28;19916;-50
2021/06/20 09:44:32;;;;;;;;;;;23.30;99.90;;;;;;5051662;28;19913;-48
2021/06/20 09:46:58;;;;;;;;;;;23.20;99.90;;;;;;5051911;28;20282;-51
2021/06/20 09:49:30;;;;;;;;;;;23.10;99.90;;;;;;5052167;28;19919;-50
2021/06/20 09:51:56;;;;;;;;;;;23.10;99.90;;;;;;5051711;28;20042;-55
2021/06/20 09:54:28;;;;;;;;;;;23.10;99.90;;;;;;5051830;28;20279;-52
2021/06/20 09:56:53;;;;;;;;;;;23.10;99.90;;;;;;5051310;28;19908;-53
2021/06/20 09:59:25;;;;;;;;;;;23.20;99.90;;;;;;5051600;28;19913;-53
2021/06/20 10:01:50;;;;;;;;;;;23.20;99.90;;;;;;5051693;28;20417;-55
2021/06/20 10:04:16;;;;;;;;;;;23.20;99.90;;;;;;5051418;28;19913;-48
2021/06/20 10:06:41;;;;;;;;;;;23.40;99.90;;;;;;5033379;28;19919;-56
2021/06/20 10:09:07;;;;;;;;;;;23.50;99.90;;;;;;5051487;28;19916;-52
2021/06/20 10:11:33;;;;;;;;;;;23.60;99.90;;;;;;5051595;28;19909;-50
2021/06/20 10:13:58;;;;;;;;;;;23.70;99.90;;;;;;5051370;28;20274;-50
2021/06/20 10:16:29;;;;;;;;;;;23.90;99.90;;;;;;5051450;28;19962;-55
2021/06/20 10:18:58;;;;;;;;;;;24.10;99.90;;;;;;5051736;28;19987;-50
2021/06/20 10:21:35;;;;;;;;;;;24.40;99.90;;;;;;5051084;28;19963;-49
2021/06/20 10:24:04;;;;;;;;;;;24.50;99.90;;;;;;5051161;28;19923;-52
2021/06/20 10:26:29;;;;;;;;;;;24.50;99.90;;;;;;5050722;28;20453;-48
2021/06/20 10:28:55;;;;;;;;;;;24.60;99.90;;;;;;5050935;28;19913;-50
2021/06/20 10:31:31;;;;;;;;;;;24.70;99.90;;;;;;5051026;28;19913;-55
2021/06/20 10:33:57;;;;;;;;;;;24.60;99.90;;;;;;5050729;28;19948;-47
2021/06/20 10:36:22;;;;;;;;;;;24.70;99.90;;;;;;5050587;28;20050;-54
2021/06/20 10:38:49;;;;;;;;;;;24.70;99.90;;;;;;5050878;28;19915;-55
2021/06/20 10:41:21;;;;;;;;;;;24.70;99.90;;;;;;5050938;28;19912;-50
2021/06/20 10:43:57;;;;;;;;;;;24.70;99.90;;;;;;5050168;28;20012;-51
2021/06/20 10:46:22;;;;;;;;;;;24.80;99.90;;;;;;5043852;28;19909;-48
2021/06/20 10:48:48;;;;;;;;;;;24.70;99.90;;;;;;5103606;22;20019;-59
2021/06/20 10:51:18;;;;;;;;;;;24.90;99.90;;;;;;5089555;28;19908;-58
2021/06/20 10:53:44;;;;;;;;;;;25.10;99.90;;;;;;5086093;28;20343;-57
2021/06/20 10:56:19;;;;;;;;;;;25.50;99.90;;;;;;5069809;28;19940;-54
2021/06/20 10:58:48;;;;;;;;;;;25.70;99.90;;;;;;5082794;28;19916;-56
2021/06/20 11:01:15;;;;;;;;;;;26.00;99.90;;;;;;5069074;28;20338;-59
2021/06/20 11:03:42;;;;;;;;;;;26.20;99.90;;;;;;5081595;28;19923;-60
2021/06/20 11:06:08;;;;;;;;;;;26.30;99.90;;;;;;5081455;28;19961;-60
2021/06/20 11:08:37;;;;;;;;;;;26.20;99.90;;;;;;5082451;28;19927;-60
2021/06/20 11:11:03;;;;;;;;;;;26.30;99.90;;;;;;5081293;28;19919;-61
2021/06/20 11:13:28;;;;;;;;;;;26.20;99.90;;;;;;5082522;28;19956;-61
2021/06/20 11:16:01;;;;;;;;;;;26.00;99.90;;;;;;5064117;28;19909;-60
2021/06/20 11:18:26;;;;;;;;;;;25.90;99.90;;;;;;5064566;28;19915;-61
2021/06/20 11:20:52;;;;;;;;;;;25.90;99.90;;;;;;5063615;28;19908;-59
2021/06/20 11:23:17;;;;;;;;;;;25.90;99.90;;;;;;5082427;28;20420;-63
2021/06/20 11:25:44;;;;;;;;;;;25.90;99.90;;;;;;5082198;28;19908;-56
2021/06/20 11:28:16;;;;;;;;;;;25.90;99.90;;;;;;5078950;28;20281;-60
2021/06/20 11:30:42;;;;;;;;;;;25.80;99.90;;;;;;5066222;28;20313;-60
2021/06/20 11:33:07;;;;;;;;;;;25.70;99.90;;;;;;5061025;28;19912;-59
2021/06/20 11:35:34;;;;;;;;;;;25.80;99.90;;;;;;5083448;28;20002;-60
2021/06/20 11:37:59;;;;;;;;;;;25.90;99.90;;;;;;5080580;28;19951;-60
2021/06/20 11:40:26;;;;;;;;;;;25.90;99.90;;;;;;5083498;28;20522;-60
2021/06/20 11:42:55;;;;;;;;;;;25.90;99.90;;;;;;5081651;28;19912;-59
2021/06/20 11:45:30;;;;;;;;;;;26.00;99.90;;;;;;5060173;28;19915;-61
2021/06/20 11:47:57;;;;;;;;;;;26.10;99.90;;;;;;5085364;28;20037;-61
2021/06/20 11:50:30;;;;;;;;;;;26.20;99.90;;;;;;5078713;28;19908;-60
2021/06/20 11:53:03;;;;;;;;;;;26.40;99.90;;;;;;5086146;28;19912;-61
2021/06/20 11:55:30;;;;;;;;;;;26.60;99.90;;;;;;5079766;28;20363;-61
2021/06/20 11:58:00;;;;;;;;;;;26.70;99.90;;;;;;5090760;28;19908;-61
2021/06/20 12:00:26;;;;;;;;;;;26.70;99.90;;;;;;5082145;28;19908;-62
2021/06/20 12:03:01;;;;;;;;;;;26.70;99.90;;;;;;5082779;28;19912;-62
2021/06/20 12:05:27;;;;;;;;;;;26.70;99.90;;;;;;5086772;28;19912;-60
2021/06/20 12:07:57;;;;;;;;;;;26.70;99.90;;;;;;5082820;28;19916;-61
2021/06/20 12:10:22;;;;;;;;;;;26.70;99.90;;;;;;5053681;28;19940;-61
2021/06/20 12:13:01;;;;;;;;;;;26.50;99.90;;;;;;5082091;28;19943;-60
2021/06/20 12:15:27;;;;;;;;;;;26.40;99.90;;;;;;5057674;28;20481;-61
2021/06/20 12:17:53;;;;;;;;;;;26.30;99.90;;;;;;5082751;28;19999;-62
2021/06/20 12:20:32;;;;;;;;;;;26.30;99.90;;;;;;5085523;28;19999;-62
2021/06/20 12:22:57;;;;;;;;;;;26.40;99.90;;;;;;5085140;28;19952;-62
2021/06/20 12:25:23;;;;;;;;;;;26.40;99.90;;;;;;5085112;28;19963;-61
2021/06/20 12:27:49;;;;;;;;;;;26.60;99.90;;;;;;5067250;28;19912;-61
2021/06/20 12:30:18;;;;;;;;;;;26.90;99.90;;;;;;5083558;28;19908;-61
2021/06/20 12:32:45;;;;;;;;;;;27.10;99.90;;;;;;5085105;28;19914;-60
2021/06/20 12:35:20;;;;;;;;;;;27.00;99.90;;;;;;5049192;28;19908;-61
2021/06/20 12:37:46;;;;;;;;;;;26.90;99.90;;;;;;5067059;28;20030;-60
2021/06/20 12:40:13;;;;;;;;;;;26.70;99.90;;;;;;5066694;28;20445;-61
2021/06/20 12:42:43;;;;;;;;;;;26.50;99.90;;;;;;5085231;28;19909;-60
2021/06/20 12:45:17;;;;;;;;;;;26.50;99.90;;;;;;5082147;28;19908;-61
2021/06/20 12:47:42;;;;;;;;;;;26.50;99.90;;;;;;5087310;28;19999;-62
2021/06/20 12:50:08;;;;;;;;;;;26.60;99.90;;;;;;5082197;28;20735;-60
2021/06/20 12:52:36;;;;;;;;;;;26.70;99.90;;;;;;5086846;28;19908;-59
2021/06/20 12:55:14;;;;;;;;;;;26.60;99.90;;;;;;5082405;28;19912;-61
2021/06/20 12:57:47;;;;;;;;;;;26.60;99.90;;;;;;5083775;28;19913;-61
2021/06/20 13:00:13;;;;;;;;;;;26.70;99.90;;;;;;5063277;28;19908;-61
2021/06/20 13:02:40;;;;;;;;;;;26.70;99.90;;;;;;5081298;28;19920;-62
2021/06/20 13:05:06;;;;;;;;;;;26.80;99.90;;;;;;5069793;28;19908;-60
2021/06/20 13:07:41;;;;;;;;;;;26.90;99.90;;;;;;5080629;28;20355;-58
2021/06/20 13:10:08;;;;;;;;;;;26.80;99.90;;;;;;5088703;28;19916;-59
2021/06/20 13:12:34;;;;;;;;;;;26.70;99.90;;;;;;5081091;28;19915;-61
2021/06/20 13:14:59;;;;;;;;;;;26.60;99.90;;;;;;5082345;28;19912;-58
2021/06/20 13:17:25;;;;;;;;;;;26.50;99.90;;;;;;5085428;28;20003;-60
2021/06/20 13:19:50;;;;;;;;;;;26.70;99.90;;;;;;5081429;28;19916;-59
2021/06/20 13:22:16;;;;;;;;;;;26.70;99.90;;;;;;5066490;28;20354;-59
2021/06/20 13:24:41;;;;;;;;;;;26.70;99.90;;;;;;5084752;28;20275;-60
2021/06/20 13:27:07;;;;;;;;;;;26.70;99.90;;;;;;5083364;28;19912;-56
2021/06/20 13:29:33;;;;;;;;;;;26.60;99.90;;;;;;5084280;28;19908;-59
2021/06/20 13:31:58;;;;;;;;;;;26.50;99.90;;;;;;5064109;28;19915;-58
2021/06/20 13:34:24;;;;;;;;;;;26.40;99.90;;;;;;5084024;28;19912;-57
2021/06/20 13:36:49;;;;;;;;;;;26.30;99.90;;;;;;5063926;28;19951;-59
2021/06/20 13:39:15;;;;;;;;;;;26.30;99.90;;;;;;5084087;28;20344;-59
2021/06/20 13:41:40;;;;;;;;;;;26.30;99.90;;;;;;5084851;28;19908;-59
2021/06/20 13:44:06;;;;;;;;;;;26.30;99.90;;;;;;5082758;28;19912;-60
2021/06/20 13:46:32;;;;;;;;;;;26.50;99.90;;;;;;5083973;28;19909;-61
2021/06/20 13:48:58;;;;;;;;;;;26.60;99.70;;;;;;5064084;28;20290;-63
2021/06/20 13:51:23;;;;;;;;;;;26.70;99.90;;;;;;5084076;28;19908;-63
2021/06/20 13:53:52;;;;;;;;;;;26.70;99.10;;;;;;5082835;28;20298;-59
2021/06/20 13:56:18;;;;;;;;;;;26.60;99.90;;;;;;5083456;28;19912;-61
2021/06/20 13:58:43;;;;;;;;;;;26.50;99.90;;;;;;5084201;28;19909;-62
2021/06/20 14:01:09;;;;;;;;;;;26.50;99.90;;;;;;5082858;28;19916;-60
2021/06/20 14:03:34;;;;;;;;;;;26.40;99.90;;;;;;5083596;28;19913;-61
2021/06/20 14:06:00;;;;;;;;;;;26.50;99.90;;;;;;5081604;28;19966;-60
2021/06/20 14:08:25;;;;;;;;;;;26.70;99.90;;;;;;5083542;28;20447;-59
2021/06/20 14:10:51;;;;;;;;;;;26.70;99.90;;;;;;5064320;28;19909;-58
2021/06/20 14:13:16;;;;;;;;;;;26.80;99.90;;;;;;5081059;28;20003;-59